sensor_id;sensor_type;location;lat;lon;timestamp;P1;durP1;ratioP1;P2;durP2;ratioP2
4911;SDS011;2471;47.056;8.350;2023-09-12T00:02:06;14.50;;;13.00;;
4911;SDS011;2471;47.056;8.350;2023-09-12T00:04:32;15.87;;;14.27;;
4911;SDS011;2471;47.056;8.350;2023-09-12T00:06:58;16.63;;;14.07;;
4911;SDS011;2471;47.056;8.350;2023-09-12T00:09:24;15.57;;;13.90;;
4911;SDS011;2471;47.056;8.350;2023-09-12T00:11:50;18.93;;;14.63;;
4911;SDS011;2471;47.056;8.350;2023-09-12T00:14:16;15.63;;;13.90;;
4911;SDS011;2471;47.056;8.350;2023-09-12T00:16:43;15.53;;;13.47;;
4911;SDS011;2471;47.056;8.350;2023-09-12T00:19:09;15.37;;;13.77;;
4911;SDS011;2471;47.056;8.350;2023-09-12T00:21:35;18.40;;;14.00;;
4911;SDS011;2471;47.056;8.350;2023-09-12T00:24:01;18.83;;;14.03;;
4911;SDS011;2471;47.056;8.350;2023-09-12T00:26:27;15.20;;;13.60;;
4911;SDS011;2471;47.056;8.350;2023-09-12T00:28:55;14.90;;;13.23;;
4911;SDS011;2471;47.056;8.350;2023-09-12T00:31:21;15.67;;;14.13;;
4911;SDS011;2471;47.056;8.350;2023-09-12T00:33:47;18.73;;;14.37;;
4911;SDS011;2471;47.056;8.350;2023-09-12T00:36:13;17.60;;;14.17;;
4911;SDS011;2471;47.056;8.350;2023-09-12T00:38:39;15.40;;;13.80;;
4911;SDS011;2471;47.056;8.350;2023-09-12T00:41:05;16.23;;;14.63;;
4911;SDS011;2471;47.056;8.350;2023-09-12T00:43:31;16.30;;;14.63;;
4911;SDS011;2471;47.056;8.350;2023-09-12T00:45:57;15.30;;;13.70;;
4911;SDS011;2471;47.056;8.350;2023-09-12T00:48:23;16.63;;;14.43;;
4911;SDS011;2471;47.056;8.350;2023-09-12T00:50:49;16.50;;;14.43;;
4911;SDS011;2471;47.056;8.350;2023-09-12T00:53:15;17.43;;;15.50;;
4911;SDS011;2471;47.056;8.350;2023-09-12T00:55:44;16.13;;;14.50;;
4911;SDS011;2471;47.056;8.350;2023-09-12T00:58:11;20.03;;;15.20;;
4911;SDS011;2471;47.056;8.350;2023-09-12T01:00:37;15.40;;;13.90;;
4911;SDS011;2471;47.056;8.350;2023-09-12T01:03:03;17.17;;;14.23;;
4911;SDS011;2471;47.056;8.350;2023-09-12T01:05:29;16.50;;;14.77;;
4911;SDS011;2471;47.056;8.350;2023-09-12T01:07:55;15.30;;;13.80;;
4911;SDS011;2471;47.056;8.350;2023-09-12T01:10:21;15.47;;;13.80;;
4911;SDS011;2471;47.056;8.350;2023-09-12T01:12:47;16.10;;;14.50;;
4911;SDS011;2471;47.056;8.350;2023-09-12T01:15:13;14.80;;;12.90;;
4911;SDS011;2471;47.056;8.350;2023-09-12T01:17:40;15.97;;;14.10;;
4911;SDS011;2471;47.056;8.350;2023-09-12T01:20:07;21.40;;;13.53;;
4911;SDS011;2471;47.056;8.350;2023-09-12T01:27:45;16.03;;;14.30;;
4911;SDS011;2471;47.056;8.350;2023-09-12T01:30:12;23.70;;;15.37;;
4911;SDS011;2471;47.056;8.350;2023-09-12T01:32:38;16.97;;;14.80;;
4911;SDS011;2471;47.056;8.350;2023-09-12T01:35:04;19.00;;;15.33;;
4911;SDS011;2471;47.056;8.350;2023-09-12T01:37:31;17.07;;;14.77;;
4911;SDS011;2471;47.056;8.350;2023-09-12T01:39:57;20.37;;;16.03;;
4911;SDS011;2471;47.056;8.350;2023-09-12T01:42:23;16.43;;;14.83;;
4911;SDS011;2471;47.056;8.350;2023-09-12T01:44:50;18.47;;;14.70;;
4911;SDS011;2471;47.056;8.350;2023-09-12T01:47:16;16.60;;;15.00;;
4911;SDS011;2471;47.056;8.350;2023-09-12T01:49:44;16.63;;;14.93;;
4911;SDS011;2471;47.056;8.350;2023-09-12T01:52:11;16.83;;;15.03;;
4911;SDS011;2471;47.056;8.350;2023-09-12T01:54:37;18.53;;;15.13;;
4911;SDS011;2471;47.056;8.350;2023-09-12T01:57:04;19.77;;;15.30;;
4911;SDS011;2471;47.056;8.350;2023-09-12T01:59:30;16.30;;;14.60;;
4911;SDS011;2471;47.056;8.350;2023-09-12T02:01:56;18.13;;;14.40;;
4911;SDS011;2471;47.056;8.350;2023-09-12T02:04:22;17.50;;;15.60;;
4911;SDS011;2471;47.056;8.350;2023-09-12T02:06:47;16.20;;;13.97;;
4911;SDS011;2471;47.056;8.350;2023-09-12T02:09:13;17.03;;;14.80;;
4911;SDS011;2471;47.056;8.350;2023-09-12T02:11:39;21.10;;;15.83;;
4911;SDS011;2471;47.056;8.350;2023-09-12T02:14:05;19.33;;;15.73;;
4911;SDS011;2471;47.056;8.350;2023-09-12T02:16:31;20.73;;;16.40;;
4911;SDS011;2471;47.056;8.350;2023-09-12T02:18:57;17.07;;;15.40;;
4911;SDS011;2471;47.056;8.350;2023-09-12T02:21:23;18.47;;;16.07;;
4911;SDS011;2471;47.056;8.350;2023-09-12T02:23:49;18.53;;;15.27;;
4911;SDS011;2471;47.056;8.350;2023-09-12T02:26:16;16.93;;;15.23;;
4911;SDS011;2471;47.056;8.350;2023-09-12T02:28:42;17.67;;;15.60;;
4911;SDS011;2471;47.056;8.350;2023-09-12T02:31:11;18.07;;;15.70;;
4911;SDS011;2471;47.056;8.350;2023-09-12T02:33:38;20.63;;;16.20;;
4911;SDS011;2471;47.056;8.350;2023-09-12T02:36:04;18.70;;;16.00;;
4911;SDS011;2471;47.056;8.350;2023-09-12T02:38:30;16.97;;;15.10;;
4911;SDS011;2471;47.056;8.350;2023-09-12T02:40:56;16.73;;;14.90;;
4911;SDS011;2471;47.056;8.350;2023-09-12T02:43:22;17.40;;;15.50;;
4911;SDS011;2471;47.056;8.350;2023-09-12T02:45:48;16.93;;;15.33;;
4911;SDS011;2471;47.056;8.350;2023-09-12T02:48:14;16.23;;;14.67;;
4911;SDS011;2471;47.056;8.350;2023-09-12T02:50:40;17.20;;;15.33;;
4911;SDS011;2471;47.056;8.350;2023-09-12T02:53:06;20.47;;;14.83;;
4911;SDS011;2471;47.056;8.350;2023-09-12T02:55:32;18.50;;;15.87;;
4911;SDS011;2471;47.056;8.350;2023-09-12T02:57:58;18.90;;;16.00;;
4911;SDS011;2471;47.056;8.350;2023-09-12T03:00:24;18.70;;;15.07;;
4911;SDS011;2471;47.056;8.350;2023-09-12T03:02:50;16.07;;;14.37;;
4911;SDS011;2471;47.056;8.350;2023-09-12T03:05:16;17.40;;;15.07;;
4911;SDS011;2471;47.056;8.350;2023-09-12T03:07:42;18.90;;;15.90;;
4911;SDS011;2471;47.056;8.350;2023-09-12T03:10:08;16.63;;;14.63;;
4911;SDS011;2471;47.056;8.350;2023-09-12T03:12:37;16.77;;;15.07;;
4911;SDS011;2471;47.056;8.350;2023-09-12T03:15:03;19.97;;;16.17;;
4911;SDS011;2471;47.056;8.350;2023-09-12T03:17:29;20.20;;;16.27;;
4911;SDS011;2471;47.056;8.350;2023-09-12T03:19:55;16.87;;;15.07;;
4911;SDS011;2471;47.056;8.350;2023-09-12T03:22:21;17.63;;;15.73;;
4911;SDS011;2471;47.056;8.350;2023-09-12T03:24:47;17.27;;;15.50;;
4911;SDS011;2471;47.056;8.350;2023-09-12T03:27:12;17.60;;;15.80;;
4911;SDS011;2471;47.056;8.350;2023-09-12T03:29:39;22.17;;;16.80;;
4911;SDS011;2471;47.056;8.350;2023-09-12T03:32:05;18.40;;;16.50;;
4911;SDS011;2471;47.056;8.350;2023-09-12T03:34:31;18.30;;;16.40;;
4911;SDS011;2471;47.056;8.350;2023-09-12T03:36:56;18.53;;;16.57;;
4911;SDS011;2471;47.056;8.350;2023-09-12T03:39:23;17.67;;;15.50;;
4911;SDS011;2471;47.056;8.350;2023-09-12T03:41:49;23.30;;;16.30;;
4911;SDS011;2471;47.056;8.350;2023-09-12T03:44:15;15.53;;;13.93;;
4911;SDS011;2471;47.056;8.350;2023-09-12T03:46:40;18.17;;;16.13;;
4911;SDS011;2471;47.056;8.350;2023-09-12T03:49:06;18.47;;;15.30;;
4911;SDS011;2471;47.056;8.350;2023-09-12T03:51:33;18.37;;;16.23;;
4911;SDS011;2471;47.056;8.350;2023-09-12T03:54:00;21.37;;;16.13;;
4911;SDS011;2471;47.056;8.350;2023-09-12T03:56:26;23.67;;;17.90;;
4911;SDS011;2471;47.056;8.350;2023-09-12T03:58:51;18.83;;;16.20;;
4911;SDS011;2471;47.056;8.350;2023-09-12T04:01:21;20.13;;;17.93;;
4911;SDS011;2471;47.056;8.350;2023-09-12T04:03:47;18.30;;;16.40;;
4911;SDS011;2471;47.056;8.350;2023-09-12T04:06:13;19.00;;;16.80;;
4911;SDS011;2471;47.056;8.350;2023-09-12T04:08:39;23.43;;;16.87;;
4911;SDS011;2471;47.056;8.350;2023-09-12T04:11:05;20.23;;;15.97;;
4911;SDS011;2471;47.056;8.350;2023-09-12T04:13:31;20.13;;;15.97;;
4911;SDS011;2471;47.056;8.350;2023-09-12T04:15:57;20.73;;;15.23;;
4911;SDS011;2471;47.056;8.350;2023-09-12T04:18:23;17.77;;;14.67;;
4911;SDS011;2471;47.056;8.350;2023-09-12T04:20:49;23.73;;;16.80;;
4911;SDS011;2471;47.056;8.350;2023-09-12T04:23:15;21.50;;;19.23;;
4911;SDS011;2471;47.056;8.350;2023-09-12T04:25:41;18.73;;;16.87;;
4911;SDS011;2471;47.056;8.350;2023-09-12T04:28:08;17.80;;;15.50;;
4911;SDS011;2471;47.056;8.350;2023-09-12T04:30:35;26.53;;;17.50;;
4911;SDS011;2471;47.056;8.350;2023-09-12T04:33:01;17.50;;;15.73;;
4911;SDS011;2471;47.056;8.350;2023-09-12T04:35:26;22.13;;;17.00;;
4911;SDS011;2471;47.056;8.350;2023-09-12T04:37:53;20.93;;;17.70;;
4911;SDS011;2471;47.056;8.350;2023-09-12T04:40:18;21.70;;;17.57;;
4911;SDS011;2471;47.056;8.350;2023-09-12T04:42:44;19.77;;;17.67;;
4911;SDS011;2471;47.056;8.350;2023-09-12T04:45:10;18.00;;;16.10;;
4911;SDS011;2471;47.056;8.350;2023-09-12T04:47:36;16.87;;;15.00;;
4911;SDS011;2471;47.056;8.350;2023-09-12T04:50:02;24.90;;;16.40;;
4911;SDS011;2471;47.056;8.350;2023-09-12T04:52:28;20.07;;;17.87;;
4911;SDS011;2471;47.056;8.350;2023-09-12T04:54:54;22.50;;;18.50;;
4911;SDS011;2471;47.056;8.350;2023-09-12T04:57:20;21.13;;;17.83;;
4911;SDS011;2471;47.056;8.350;2023-09-12T04:59:46;23.23;;;18.57;;
4911;SDS011;2471;47.056;8.350;2023-09-12T05:02:12;23.97;;;18.60;;
4911;SDS011;2471;47.056;8.350;2023-09-12T05:04:38;24.50;;;18.93;;
4911;SDS011;2471;47.056;8.350;2023-09-12T05:07:04;18.67;;;16.77;;
4911;SDS011;2471;47.056;8.350;2023-09-12T05:09:30;23.23;;;17.00;;
4911;SDS011;2471;47.056;8.350;2023-09-12T05:11:56;22.13;;;18.00;;
4911;SDS011;2471;47.056;8.350;2023-09-12T05:14:22;20.23;;;16.70;;
4911;SDS011;2471;47.056;8.350;2023-09-12T05:16:48;25.33;;;19.83;;
4911;SDS011;2471;47.056;8.350;2023-09-12T05:19:14;19.70;;;17.70;;
4911;SDS011;2471;47.056;8.350;2023-09-12T05:21:40;19.63;;;17.57;;
4911;SDS011;2471;47.056;8.350;2023-09-12T05:24:06;18.73;;;16.70;;
4911;SDS011;2471;47.056;8.350;2023-09-12T05:26:32;24.03;;;16.47;;
4911;SDS011;2471;47.056;8.350;2023-09-12T05:28:58;19.80;;;17.27;;
4911;SDS011;2471;47.056;8.350;2023-09-12T05:31:24;17.80;;;15.93;;
4911;SDS011;2471;47.056;8.350;2023-09-12T05:33:50;24.70;;;15.40;;
4911;SDS011;2471;47.056;8.350;2023-09-12T05:36:16;22.73;;;18.60;;
4911;SDS011;2471;47.056;8.350;2023-09-12T05:38:42;19.20;;;16.73;;
4911;SDS011;2471;47.056;8.350;2023-09-12T05:41:08;20.30;;;17.60;;
4911;SDS011;2471;47.056;8.350;2023-09-12T05:43:34;21.57;;;17.03;;
4911;SDS011;2471;47.056;8.350;2023-09-12T05:46:00;16.90;;;15.03;;
4911;SDS011;2471;47.056;8.350;2023-09-12T05:48:26;17.47;;;15.63;;
4911;SDS011;2471;47.056;8.350;2023-09-12T05:50:52;17.10;;;15.30;;
4911;SDS011;2471;47.056;8.350;2023-09-12T05:53:18;19.03;;;17.03;;
4911;SDS011;2471;47.056;8.350;2023-09-12T05:55:44;20.50;;;15.27;;
4911;SDS011;2471;47.056;8.350;2023-09-12T05:58:10;16.93;;;15.13;;
4911;SDS011;2471;47.056;8.350;2023-09-12T06:00:36;17.27;;;15.47;;
4911;SDS011;2471;47.056;8.350;2023-09-12T06:03:02;17.40;;;15.57;;
4911;SDS011;2471;47.056;8.350;2023-09-12T06:05:28;17.77;;;15.87;;
4911;SDS011;2471;47.056;8.350;2023-09-12T06:07:54;16.63;;;14.90;;
4911;SDS011;2471;47.056;8.350;2023-09-12T06:10:20;17.00;;;15.30;;
4911;SDS011;2471;47.056;8.350;2023-09-12T06:12:46;17.03;;;15.30;;
4911;SDS011;2471;47.056;8.350;2023-09-12T06:15:12;16.27;;;14.77;;
4911;SDS011;2471;47.056;8.350;2023-09-12T06:17:38;17.47;;;15.57;;
4911;SDS011;2471;47.056;8.350;2023-09-12T06:20:04;18.83;;;14.77;;
4911;SDS011;2471;47.056;8.350;2023-09-12T06:22:31;17.67;;;14.43;;
4911;SDS011;2471;47.056;8.350;2023-09-12T06:24:57;17.73;;;15.70;;
4911;SDS011;2471;47.056;8.350;2023-09-12T06:27:23;19.93;;;15.47;;
4911;SDS011;2471;47.056;8.350;2023-09-12T06:29:49;16.67;;;14.93;;
4911;SDS011;2471;47.056;8.350;2023-09-12T06:32:15;17.43;;;15.17;;
4911;SDS011;2471;47.056;8.350;2023-09-12T06:34:42;17.17;;;15.37;;
4911;SDS011;2471;47.056;8.350;2023-09-12T06:37:08;21.60;;;16.17;;
4911;SDS011;2471;47.056;8.350;2023-09-12T06:39:34;15.97;;;14.27;;
4911;SDS011;2471;47.056;8.350;2023-09-12T06:42:00;15.77;;;14.30;;
4911;SDS011;2471;47.056;8.350;2023-09-12T06:44:27;19.77;;;14.23;;
4911;SDS011;2471;47.056;8.350;2023-09-12T06:46:53;15.17;;;13.63;;
4911;SDS011;2471;47.056;8.350;2023-09-12T06:49:18;14.63;;;12.23;;
4911;SDS011;2471;47.056;8.350;2023-09-12T06:51:44;17.70;;;13.17;;
4911;SDS011;2471;47.056;8.350;2023-09-12T06:54:10;13.87;;;12.37;;
4911;SDS011;2471;47.056;8.350;2023-09-12T06:56:37;15.63;;;14.13;;
4911;SDS011;2471;47.056;8.350;2023-09-12T06:59:06;14.73;;;13.23;;
4911;SDS011;2471;47.056;8.350;2023-09-12T07:01:33;15.23;;;13.20;;
4911;SDS011;2471;47.056;8.350;2023-09-12T07:03:59;14.90;;;13.40;;
4911;SDS011;2471;47.056;8.350;2023-09-12T07:06:24;13.60;;;12.30;;
4911;SDS011;2471;47.056;8.350;2023-09-12T07:08:50;14.70;;;13.10;;
4911;SDS011;2471;47.056;8.350;2023-09-12T07:11:16;18.03;;;15.07;;
4911;SDS011;2471;47.056;8.350;2023-09-12T07:13:44;14.60;;;13.13;;
4911;SDS011;2471;47.056;8.350;2023-09-12T07:16:10;14.57;;;12.77;;
4911;SDS011;2471;47.056;8.350;2023-09-12T07:18:36;12.80;;;11.60;;
4911;SDS011;2471;47.056;8.350;2023-09-12T07:21:03;14.10;;;12.70;;
4911;SDS011;2471;47.056;8.350;2023-09-12T07:23:29;12.67;;;11.57;;
4911;SDS011;2471;47.056;8.350;2023-09-12T07:25:56;13.50;;;12.10;;
4911;SDS011;2471;47.056;8.350;2023-09-12T07:28:25;12.43;;;11.07;;
4911;SDS011;2471;47.056;8.350;2023-09-12T07:30:51;12.87;;;11.57;;
4911;SDS011;2471;47.056;8.350;2023-09-12T07:33:17;13.23;;;11.83;;
4911;SDS011;2471;47.056;8.350;2023-09-12T07:35:43;12.50;;;11.40;;
4911;SDS011;2471;47.056;8.350;2023-09-12T07:38:09;13.27;;;12.00;;
4911;SDS011;2471;47.056;8.350;2023-09-12T07:40:35;17.10;;;11.90;;
4911;SDS011;2471;47.056;8.350;2023-09-12T07:43:01;17.97;;;12.93;;
4911;SDS011;2471;47.056;8.350;2023-09-12T07:45:27;15.03;;;12.47;;
4911;SDS011;2471;47.056;8.350;2023-09-12T07:47:54;13.03;;;11.60;;
4911;SDS011;2471;47.056;8.350;2023-09-12T07:50:20;11.97;;;10.97;;
4911;SDS011;2471;47.056;8.350;2023-09-12T07:52:46;13.23;;;11.93;;
4911;SDS011;2471;47.056;8.350;2023-09-12T07:55:12;12.93;;;11.80;;
4911;SDS011;2471;47.056;8.350;2023-09-12T07:57:38;15.40;;;12.10;;
4911;SDS011;2471;47.056;8.350;2023-09-12T08:00:04;12.60;;;11.50;;
4911;SDS011;2471;47.056;8.350;2023-09-12T08:02:35;13.03;;;11.80;;
4911;SDS011;2471;47.056;8.350;2023-09-12T08:05:01;14.60;;;12.07;;
4911;SDS011;2471;47.056;8.350;2023-09-12T08:07:27;11.70;;;10.70;;
4911;SDS011;2471;47.056;8.350;2023-09-12T08:09:54;12.70;;;10.37;;
4911;SDS011;2471;47.056;8.350;2023-09-12T08:12:22;12.30;;;11.10;;
4911;SDS011;2471;47.056;8.350;2023-09-12T08:14:48;11.63;;;10.53;;
4911;SDS011;2471;47.056;8.350;2023-09-12T08:17:14;12.00;;;10.77;;
4911;SDS011;2471;47.056;8.350;2023-09-12T08:19:41;11.57;;;10.53;;
4911;SDS011;2471;47.056;8.350;2023-09-12T08:22:07;12.87;;;11.50;;
4911;SDS011;2471;47.056;8.350;2023-09-12T08:24:34;11.70;;;10.70;;
4911;SDS011;2471;47.056;8.350;2023-09-12T08:27:00;12.00;;;10.70;;
4911;SDS011;2471;47.056;8.350;2023-09-12T08:29:27;12.07;;;11.07;;
4911;SDS011;2471;47.056;8.350;2023-09-12T08:31:53;11.17;;;10.10;;
4911;SDS011;2471;47.056;8.350;2023-09-12T08:34:22;10.27;;;9.37;;
4911;SDS011;2471;47.056;8.350;2023-09-12T08:36:48;11.73;;;10.33;;
4911;SDS011;2471;47.056;8.350;2023-09-12T08:39:15;10.40;;;9.50;;
4911;SDS011;2471;47.056;8.350;2023-09-12T08:41:42;11.53;;;10.20;;
4911;SDS011;2471;47.056;8.350;2023-09-12T08:44:08;12.10;;;10.80;;
4911;SDS011;2471;47.056;8.350;2023-09-12T08:46:35;14.10;;;9.53;;
4911;SDS011;2471;47.056;8.350;2023-09-12T08:49:02;10.07;;;9.17;;
4911;SDS011;2471;47.056;8.350;2023-09-12T08:51:29;13.63;;;7.70;;
4911;SDS011;2471;47.056;8.350;2023-09-12T08:53:54;8.73;;;8.03;;
4911;SDS011;2471;47.056;8.350;2023-09-12T08:56:20;8.97;;;7.93;;
4911;SDS011;2471;47.056;8.350;2023-09-12T08:58:46;10.03;;;8.40;;
4911;SDS011;2471;47.056;8.350;2023-09-12T09:01:13;14.90;;;13.50;;
4911;SDS011;2471;47.056;8.350;2023-09-12T09:03:40;13.10;;;11.90;;
4911;SDS011;2471;47.056;8.350;2023-09-12T09:06:08;10.63;;;9.60;;
4911;SDS011;2471;47.056;8.350;2023-09-12T09:08:34;10.03;;;9.00;;
4911;SDS011;2471;47.056;8.350;2023-09-12T09:11:00;15.13;;;9.20;;
4911;SDS011;2471;47.056;8.350;2023-09-12T09:13:31;10.93;;;9.57;;
4911;SDS011;2471;47.056;8.350;2023-09-12T09:16:13;11.97;;;8.40;;
4911;SDS011;2471;47.056;8.350;2023-09-12T09:18:49;9.33;;;8.53;;
4911;SDS011;2471;47.056;8.350;2023-09-12T09:21:19;9.07;;;8.00;;
4911;SDS011;2471;47.056;8.350;2023-09-12T09:23:47;7.97;;;7.37;;
4911;SDS011;2471;47.056;8.350;2023-09-12T09:26:13;9.30;;;7.83;;
4911;SDS011;2471;47.056;8.350;2023-09-12T09:28:39;11.40;;;7.25;;
4911;SDS011;2471;47.056;8.350;2023-09-12T09:31:09;8.38;;;7.47;;
4911;SDS011;2471;47.056;8.350;2023-09-12T09:33:35;8.10;;;7.40;;
4911;SDS011;2471;47.056;8.350;2023-09-12T09:36:05;9.13;;;8.03;;
4911;SDS011;2471;47.056;8.350;2023-09-12T09:38:31;15.50;;;9.20;;
4911;SDS011;2471;47.056;8.350;2023-09-12T09:40:57;9.27;;;8.37;;
4911;SDS011;2471;47.056;8.350;2023-09-12T09:43:23;14.23;;;8.10;;
4911;SDS011;2471;47.056;8.350;2023-09-12T09:45:50;12.20;;;8.70;;
4911;SDS011;2471;47.056;8.350;2023-09-12T09:48:25;10.17;;;9.17;;
4911;SDS011;2471;47.056;8.350;2023-09-12T09:50:52;10.03;;;9.23;;
4911;SDS011;2471;47.056;8.350;2023-09-12T09:53:28;9.20;;;8.33;;
4911;SDS011;2471;47.056;8.350;2023-09-12T09:56:13;9.40;;;8.70;;
4911;SDS011;2471;47.056;8.350;2023-09-12T09:58:46;10.30;;;9.20;;
4911;SDS011;2471;47.056;8.350;2023-09-12T10:01:13;9.23;;;8.47;;
4911;SDS011;2471;47.056;8.350;2023-09-12T10:03:39;14.70;;;9.80;;
4911;SDS011;2471;47.056;8.350;2023-09-12T10:06:06;9.80;;;8.83;;
4911;SDS011;2471;47.056;8.350;2023-09-12T10:08:34;10.90;;;9.60;;
4911;SDS011;2471;47.056;8.350;2023-09-12T10:10:59;10.57;;;9.47;;
4911;SDS011;2471;47.056;8.350;2023-09-12T10:13:26;10.13;;;9.03;;
4911;SDS011;2471;47.056;8.350;2023-09-12T10:15:57;9.57;;;8.70;;
4911;SDS011;2471;47.056;8.350;2023-09-12T10:18:24;14.90;;;9.30;;
4911;SDS011;2471;47.056;8.350;2023-09-12T10:20:52;8.77;;;8.07;;
4911;SDS011;2471;47.056;8.350;2023-09-12T10:25:47;11.90;;;10.20;;
4911;SDS011;2471;47.056;8.350;2023-09-12T10:28:14;12.30;;;11.10;;
4911;SDS011;2471;47.056;8.350;2023-09-12T10:30:40;12.07;;;9.90;;
4911;SDS011;2471;47.056;8.350;2023-09-12T10:33:07;12.37;;;11.00;;
4911;SDS011;2471;47.056;8.350;2023-09-12T10:35:33;14.03;;;11.07;;
4911;SDS011;2471;47.056;8.350;2023-09-12T10:38:00;11.80;;;10.57;;
4911;SDS011;2471;47.056;8.350;2023-09-12T10:40:29;12.33;;;10.97;;
4911;SDS011;2471;47.056;8.350;2023-09-12T10:42:55;11.37;;;10.30;;
4911;SDS011;2471;47.056;8.350;2023-09-12T10:45:22;25.53;;;11.37;;
4911;SDS011;2471;47.056;8.350;2023-09-12T10:47:48;13.40;;;11.70;;
4911;SDS011;2471;47.056;8.350;2023-09-12T10:50:14;11.63;;;10.53;;
4911;SDS011;2471;47.056;8.350;2023-09-12T10:52:40;19.37;;;11.37;;
4911;SDS011;2471;47.056;8.350;2023-09-12T10:55:07;12.17;;;11.00;;
4911;SDS011;2471;47.056;8.350;2023-09-12T10:57:33;13.67;;;11.20;;
4911;SDS011;2471;47.056;8.350;2023-09-12T11:02:35;22.43;;;18.00;;
4911;SDS011;2471;47.056;8.350;2023-09-12T11:05:04;12.20;;;9.33;;
4911;SDS011;2471;47.056;8.350;2023-09-12T11:12:44;8.90;;;7.87;;
4911;SDS011;2471;47.056;8.350;2023-09-12T11:15:10;9.10;;;8.30;;
4911;SDS011;2471;47.056;8.350;2023-09-12T11:17:40;8.73;;;7.90;;
4911;SDS011;2471;47.056;8.350;2023-09-12T11:20:06;10.00;;;9.20;;
4911;SDS011;2471;47.056;8.350;2023-09-12T11:22:45;9.30;;;8.40;;
4911;SDS011;2471;47.056;8.350;2023-09-12T11:25:21;8.93;;;8.10;;
4911;SDS011;2471;47.056;8.350;2023-09-12T11:32:44;10.70;;;9.60;;
4911;SDS011;2471;47.056;8.350;2023-09-12T11:35:10;12.50;;;10.53;;
4911;SDS011;2471;47.056;8.350;2023-09-12T11:37:36;11.67;;;10.57;;
4911;SDS011;2471;47.056;8.350;2023-09-12T11:40:14;11.63;;;10.43;;
4911;SDS011;2471;47.056;8.350;2023-09-12T11:42:41;10.87;;;9.77;;
4911;SDS011;2471;47.056;8.350;2023-09-12T11:45:08;10.67;;;9.70;;
4911;SDS011;2471;47.056;8.350;2023-09-12T11:47:34;10.67;;;9.40;;
4911;SDS011;2471;47.056;8.350;2023-09-12T11:50:00;10.70;;;9.70;;
4911;SDS011;2471;47.056;8.350;2023-09-12T11:52:27;11.00;;;9.17;;
4911;SDS011;2471;47.056;8.350;2023-09-12T11:54:53;13.00;;;9.43;;
4911;SDS011;2471;47.056;8.350;2023-09-12T11:57:19;15.63;;;11.13;;
4911;SDS011;2471;47.056;8.350;2023-09-12T11:59:45;12.37;;;10.77;;
4911;SDS011;2471;47.056;8.350;2023-09-12T12:02:13;12.43;;;11.10;;
4911;SDS011;2471;47.056;8.350;2023-09-12T12:04:39;12.87;;;11.67;;
4911;SDS011;2471;47.056;8.350;2023-09-12T12:07:05;16.30;;;12.07;;
4911;SDS011;2471;47.056;8.350;2023-09-12T12:09:32;13.13;;;10.07;;
4911;SDS011;2471;47.056;8.350;2023-09-12T12:12:08;12.47;;;11.20;;
4911;SDS011;2471;47.056;8.350;2023-09-12T12:14:34;13.10;;;11.80;;
4911;SDS011;2471;47.056;8.350;2023-09-12T12:17:08;12.03;;;10.93;;
4911;SDS011;2471;47.056;8.350;2023-09-12T12:19:34;13.30;;;11.43;;
4911;SDS011;2471;47.056;8.350;2023-09-12T12:22:02;12.03;;;10.93;;
4911;SDS011;2471;47.056;8.350;2023-09-12T12:24:35;16.90;;;11.20;;
4911;SDS011;2471;47.056;8.350;2023-09-12T12:27:02;12.33;;;11.23;;
4911;SDS011;2471;47.056;8.350;2023-09-12T12:29:29;12.87;;;10.97;;
4911;SDS011;2471;47.056;8.350;2023-09-12T12:32:01;12.50;;;11.23;;
4911;SDS011;2471;47.056;8.350;2023-09-12T12:34:27;13.70;;;11.50;;
4911;SDS011;2471;47.056;8.350;2023-09-12T12:36:54;16.27;;;11.07;;
4911;SDS011;2471;47.056;8.350;2023-09-12T12:39:23;16.67;;;11.13;;
4911;SDS011;2471;47.056;8.350;2023-09-12T12:41:51;13.97;;;10.67;;
4911;SDS011;2471;47.056;8.350;2023-09-12T12:44:18;19.03;;;13.30;;
4911;SDS011;2471;47.056;8.350;2023-09-12T12:46:47;16.53;;;13.00;;
4911;SDS011;2471;47.056;8.350;2023-09-12T12:49:14;12.97;;;11.37;;
4911;SDS011;2471;47.056;8.350;2023-09-12T12:51:41;13.90;;;11.43;;
4911;SDS011;2471;47.056;8.350;2023-09-12T12:54:08;14.87;;;9.50;;
4911;SDS011;2471;47.056;8.350;2023-09-12T12:56:34;11.47;;;10.37;;
4911;SDS011;2471;47.056;8.350;2023-09-12T12:59:00;21.60;;;11.67;;
4911;SDS011;2471;47.056;8.350;2023-09-12T13:01:32;14.63;;;11.33;;
4911;SDS011;2471;47.056;8.350;2023-09-12T13:03:58;10.50;;;9.50;;
4911;SDS011;2471;47.056;8.350;2023-09-12T13:06:24;12.27;;;9.33;;
4911;SDS011;2471;47.056;8.350;2023-09-12T13:08:52;15.50;;;10.87;;
4911;SDS011;2471;47.056;8.350;2023-09-12T13:11:18;12.10;;;11.00;;
4911;SDS011;2471;47.056;8.350;2023-09-12T13:13:45;13.90;;;11.90;;
4911;SDS011;2471;47.056;8.350;2023-09-12T13:16:14;12.30;;;11.00;;
4911;SDS011;2471;47.056;8.350;2023-09-12T13:18:40;12.33;;;11.13;;
4911;SDS011;2471;47.056;8.350;2023-09-12T13:21:06;12.07;;;9.63;;
4911;SDS011;2471;47.056;8.350;2023-09-12T13:23:36;10.03;;;9.13;;
4911;SDS011;2471;47.056;8.350;2023-09-12T13:26:02;11.43;;;7.63;;
4911;SDS011;2471;47.056;8.350;2023-09-12T13:28:28;8.97;;;5.63;;
4911;SDS011;2471;47.056;8.350;2023-09-12T13:30:54;8.30;;;4.37;;
4911;SDS011;2471;47.056;8.350;2023-09-12T13:33:20;13.53;;;4.50;;
4911;SDS011;2471;47.056;8.350;2023-09-12T13:35:47;5.60;;;4.27;;
4911;SDS011;2471;47.056;8.350;2023-09-12T13:38:14;5.00;;;4.30;;
4911;SDS011;2471;47.056;8.350;2023-09-12T13:40:42;6.43;;;4.80;;
4911;SDS011;2471;47.056;8.350;2023-09-12T13:43:09;8.80;;;4.03;;
4911;SDS011;2471;47.056;8.350;2023-09-12T13:45:35;4.00;;;2.50;;
4911;SDS011;2471;47.056;8.350;2023-09-12T13:48:02;5.30;;;2.53;;
4911;SDS011;2471;47.056;8.350;2023-09-12T13:50:28;2.20;;;2.00;;
4911;SDS011;2471;47.056;8.350;2023-09-12T13:52:54;6.33;;;2.03;;
4911;SDS011;2471;47.056;8.350;2023-09-12T13:55:24;2.07;;;1.87;;
4911;SDS011;2471;47.056;8.350;2023-09-12T13:57:50;6.80;;;2.57;;
4911;SDS011;2471;47.056;8.350;2023-09-12T14:00:16;3.83;;;2.43;;
4911;SDS011;2471;47.056;8.350;2023-09-12T14:02:42;2.63;;;2.43;;
4911;SDS011;2471;47.056;8.350;2023-09-12T14:05:09;2.63;;;2.30;;
4911;SDS011;2471;47.056;8.350;2023-09-12T14:07:36;3.87;;;2.60;;
4911;SDS011;2471;47.056;8.350;2023-09-12T14:10:03;3.00;;;2.73;;
4911;SDS011;2471;47.056;8.350;2023-09-12T14:12:29;4.20;;;3.37;;
4911;SDS011;2471;47.056;8.350;2023-09-12T14:14:55;4.87;;;2.87;;
4911;SDS011;2471;47.056;8.350;2023-09-12T14:17:21;6.47;;;5.87;;
4911;SDS011;2471;47.056;8.350;2023-09-12T14:19:47;3.07;;;2.47;;
4911;SDS011;2471;47.056;8.350;2023-09-12T14:22:13;3.50;;;3.20;;
4911;SDS011;2471;47.056;8.350;2023-09-12T14:24:39;6.03;;;3.87;;
4911;SDS011;2471;47.056;8.350;2023-09-12T14:27:04;3.17;;;2.83;;
4911;SDS011;2471;47.056;8.350;2023-09-12T14:29:30;10.10;;;6.00;;
4911;SDS011;2471;47.056;8.350;2023-09-12T14:31:57;8.20;;;4.30;;
4911;SDS011;2471;47.056;8.350;2023-09-12T14:34:26;4.50;;;3.40;;
4911;SDS011;2471;47.056;8.350;2023-09-12T14:36:55;2.83;;;2.60;;
4911;SDS011;2471;47.056;8.350;2023-09-12T14:39:21;5.60;;;5.10;;
4911;SDS011;2471;47.056;8.350;2023-09-12T14:41:47;4.23;;;3.83;;
4911;SDS011;2471;47.056;8.350;2023-09-12T14:44:20;3.57;;;3.10;;
4911;SDS011;2471;47.056;8.350;2023-09-12T14:46:46;5.23;;;3.40;;
4911;SDS011;2471;47.056;8.350;2023-09-12T14:49:12;6.00;;;4.80;;
4911;SDS011;2471;47.056;8.350;2023-09-12T14:51:38;3.00;;;2.80;;
4911;SDS011;2471;47.056;8.350;2023-09-12T14:54:04;3.70;;;3.33;;
4911;SDS011;2471;47.056;8.350;2023-09-12T14:56:31;3.00;;;2.80;;
4911;SDS011;2471;47.056;8.350;2023-09-12T14:58:57;3.90;;;3.50;;
4911;SDS011;2471;47.056;8.350;2023-09-12T15:01:23;7.77;;;3.37;;
4911;SDS011;2471;47.056;8.350;2023-09-12T15:03:49;4.40;;;3.60;;
4911;SDS011;2471;47.056;8.350;2023-09-12T15:06:16;4.33;;;3.57;;
4911;SDS011;2471;47.056;8.350;2023-09-12T15:08:42;4.00;;;3.60;;
4911;SDS011;2471;47.056;8.350;2023-09-12T15:11:08;5.67;;;4.03;;